To NAV CANADA Home Page Login to a new session Search on AWWS site Feedback and Comments Disclaimer Vers la page française équivalente Tips FAQ What's new on the site To the Forecasts and Observations / NOTAM section To "File a Flight Plan" website Publications and other links Update of the User's profile FIC Telephone Numbers My Weather Data Folder Route Weather Data Regional Weather Data Local Weather Data To the Forecasts and Observations / NOTAM section
Request Generated 07/24/2016 at 12:50:56 UTC . Weather information available at that time is displayed.

METAR/TAF

YARMOUTH/NS    

SPECI CYQI 241221Z 12007KT 7SM -SHRA FEW035 BKN050CB BKN120 17/17
A2982 RMK SC1CB5AC2 SC TR SLP099 DENSITY ALT 500FT=
METAR CYQI 241200Z CCB 10006KT 7SM -TSRA FEW035 BKN050CB BKN060TCU
BKN120 17/17 A2981 RMK SC1CB4TCU1AC2 TCU TR LTGCG SLP097 DENSITY
ALT 500FT=
METAR CYQI 241200Z CCA 10006KT 7SM -TSRA FEW035 BKN050CB BKN060TCU
BKN120 17/17 A2981 RMK SC1CB4TCU1AC2 TCU TR LTGCG SLP097 DENSITY
ALT 500FT=
METAR CYQI 241200Z 10006KT 7SM -TSRA FEW035 BKN050CB BKN060TCU BKN120
17/17 A2981 RMK SC1CB4TCU1AC2 TCU TR SLP097 DENSITY ALT 500FT=
SPECI CYQI 241152Z 10005KT 7SM -TSRA FEW035 BKN060CB BKN120 17/17
A2981 RMK SC1CB4AC2 SLP097 DENSITY ALT 500FT=
SPECI CYQI 241112Z 34008KT 10SM TS FEW050CB BKN110 OVC250 16/16 A2980
RMK CB2AC5CI1 PCPN DIST N SLP094 DENSITY ALT 400FT=
METAR CYQI 241100Z 35006KT 6SM BR FEW050 OVC110 16/16 A2980 RMK
SC1AC7 PCPN DIST N SLP092 DENSITY ALT 400FT=
METAR CYQI 241000Z 27006KT 5SM BR BKN110 OVC250 15/15 A2979 RMK
AC7CI1 SLP088 DENSITY ALT 200FT=

TAF CYQI 241139Z 2412/2424 35006KT P6SM FEW020 OVC110 TEMPO 2412/2414
2SM TSRA BR BKN020CB
FM241400 30006KT P6SM SCT050 TEMPO 2414/2417 BKN050 PROB30
2414/2417 2SM TSRA BR BKN030CB
FM241700 30010KT P6SM SCT050
RMK NXT FCST BY 241800Z=
Your time UTC time
Weather data provided by Environment Canada and NAV CANADA